Accueil
METAR-TAF:

METAR-TAF

Aéroports :

Stockholm-Arlanda, Suède

Aéroport de Stockholm-Arlanda

latitude: 59-39N, longitude: 017-57E, altitude: 38 m

Observation

Le bulletin a été fait il y a 16 minutes, à 07:50 UTC
Vent 9 kt de nord/nord-est
Température 4°C
Humidité 75%
Pression 1023 hPa
Visibilité 10 km ou plus
Quelques nuages à une hauteur de 3500 ft
Nuages fragmentés à une hauteur de 4500 ft

METAR: ESSA 230750Z 03009KT 9999 FEW035 BKN045 04/M00 Q1023 NOSIG

Heure: 10:06 (08:06 UTC)

Prévision

Le bulletin a été fait il y a 2 heures et 36 minutes, à 05:30 UTC
Prévision valable du 23 à 06 UTC au 24 à 06 UTC
Vent 9 kt de nord-est
Visibilité 10 km ou plus
Nuages fragmentés à une hauteur de 4000 ft
Probabilité 40%
du 23 à 06 UTC au 23 à 14 UTC
Nuages fragmentés à une hauteur de 1400 ft
pluie

TAF: ESSA 230530Z 2306/2406 04009KT 9999 BKN040 PROB40 2306/2314 RA BKN014

Observations et prévisions météorologiques de plus de 4000 aéroports (messages METAR et TAF).

Les stations disponibles sont représentées par des disques jaunes et rouges sur la carte.

Passer la souris dessus pour voir le nom de la station.

Cliquer dessus pour voir les observations et prévisions météorologiques.

Pour changer de carte: cliquez sur les boutons verts avec une croix noire pour zoomer, sur le bouton vert avec un tiret pour effectuer un zoom arrière, ou sur les flèches vertes pour les cartes adjacentes.


METAR-TAF: